Time;durP1;ratioP1;P1;durP2;ratioP2;P2;SDS_P1;SDS_P2;PMS_P1;PMS_P2;Temp;Humidity;BMP_temperature;BMP_pressure;BME280_temperature;BME280_humidity;BME280_pressure;Samples;Min_cycle;Max_cycle;Signal;HPM_P1;HPM_P2
2021/06/06 00:01:21;;;;;;;5.97;5.38;;;25.50;46.90;;;;;;5092996;28;20154;-61
2021/06/06 00:03:52;;;;;;;6.05;5.18;;;25.40;46.80;;;;;;5093218;28;20097;-60
2021/06/06 00:06:31;;;;;;;6.53;5.88;;;25.40;46.90;;;;;;5091945;28;20054;-61
2021/06/06 00:08:59;;;;;;;5.82;5.10;;;25.40;46.80;;;;;;5092241;28;20386;-60
2021/06/06 00:11:31;;;;;;;6.18;5.25;;;25.40;46.90;;;;;;5093707;28;20023;-61
2021/06/06 00:13:59;;;;;;;6.28;5.07;;;25.40;46.90;;;;;;5092858;28;20028;-61
2021/06/06 00:16:34;;;;;;;5.90;5.22;;;25.40;46.90;;;;;;5092972;28;20124;-62
2021/06/06 00:19:01;;;;;;;5.88;4.85;;;25.40;46.90;;;;;;5092859;28;20019;-61
2021/06/06 00:21:28;;;;;;;6.05;5.03;;;25.40;46.90;;;;;;5092511;28;20394;-60
2021/06/06 00:23:55;;;;;;;5.07;4.57;;;25.40;46.90;;;;;;5091385;28;20089;-61
2021/06/06 00:26:22;;;;;;;5.88;4.63;;;25.40;46.90;;;;;;5092215;28;20050;-61
2021/06/06 00:28:48;;;;;;;5.80;5.00;;;25.40;46.90;;;;;;5093892;28;20059;-61
2021/06/06 00:31:14;;;;;;;5.95;4.82;;;25.40;47.00;;;;;;5093012;28;20048;-62
2021/06/06 00:33:40;;;;;;;5.78;5.07;;;25.40;47.60;;;;;;5075043;28;20078;-62
2021/06/06 00:36:08;;;;;;;6.15;4.80;;;25.40;47.00;;;;;;5092578;28;20024;-60
2021/06/06 00:38:34;;;;;;;6.47;5.00;;;25.40;47.00;;;;;;5092608;28;20094;-61
2021/06/06 00:41:01;;;;;;;5.53;4.70;;;25.30;46.90;;;;;;5091178;28;20089;-60
2021/06/06 00:43:28;;;;;;;6.85;5.25;;;25.30;46.90;;;;;;5093575;28;20024;-60
2021/06/06 00:45:55;;;;;;;5.80;4.97;;;25.30;46.90;;;;;;5091001;28;20027;-61
2021/06/06 00:48:22;;;;;;;5.05;4.20;;;25.30;46.90;;;;;;5092690;28;20099;-59
2021/06/06 00:50:56;;;;;;;4.60;4.20;;;25.30;46.90;;;;;;5091077;28;20123;-60
2021/06/06 00:53:33;;;;;;;4.97;4.45;;;25.30;46.90;;;;;;5091363;28;20028;-61
2021/06/06 00:56:03;;;;;;;5.03;4.15;;;25.30;46.90;;;;;;5090975;28;20027;-59
2021/06/06 00:58:29;;;;;;;6.95;5.00;;;25.30;46.90;;;;;;5092217;28;20115;-63
2021/06/06 01:00:58;;;;;;;6.70;4.70;;;25.30;46.90;;;;;;5091213;28;20107;-60
2021/06/06 01:03:25;;;;;;;6.43;5.03;;;25.30;46.90;;;;;;5091473;28;20028;-61
2021/06/06 01:06:06;;;;;;;5.45;4.55;;;25.30;46.90;;;;;;5090823;28;20044;-63
2021/06/06 01:08:33;;;;;;;6.32;4.65;;;25.30;46.90;;;;;;5091351;28;20020;-60
2021/06/06 01:11:15;;;;;;;5.18;4.35;;;25.30;46.90;;;;;;5091570;28;20106;-62
2021/06/06 01:13:51;;;;;;;5.40;4.07;;;25.30;46.90;;;;;;5087674;28;20020;-61
2021/06/06 01:16:26;;;;;;;4.55;4.13;;;25.30;46.90;;;;;;5092425;28;20016;-61
2021/06/06 01:18:59;;;;;;;5.18;4.10;;;25.30;46.90;;;;;;5065894;28;20047;-62
2021/06/06 01:21:56;;;;;;;4.60;4.05;;;25.20;46.90;;;;;;5090858;28;20032;-62
2021/06/06 01:24:34;;;;;;;5.03;4.20;;;25.20;46.80;;;;;;5071585;28;20054;-62
2021/06/06 01:27:11;;;;;;;4.63;3.72;;;25.20;46.80;;;;;;5073369;28;20027;-61
2021/06/06 01:30:09;;;;;;;5.07;4.45;;;25.20;46.90;;;;;;5087344;28;20439;-61
2021/06/06 01:32:58;;;;;;;4.82;3.55;;;25.20;46.80;;;;;;5090869;28;20031;-61
2021/06/06 01:35:32;;;;;;;5.43;4.05;;;25.20;46.80;;;;;;5090753;28;20024;-60
2021/06/06 01:38:19;;;;;;;;;;;25.20;46.90;;;;;;5079881;28;20114;-60
2021/06/06 01:40:47;;;;;;;4.85;3.55;;;25.20;46.90;;;;;;5091211;28;19908;-64
2021/06/06 01:43:19;;;;;;;5.20;3.80;;;25.10;46.80;;;;;;5088530;28;20028;-61
2021/06/06 01:45:54;;;;;;;4.65;3.78;;;25.10;46.80;;;;;;5092589;28;20354;-62
2021/06/06 01:48:20;;;;;;;4.32;3.67;;;25.10;46.80;;;;;;5090574;28;20337;-61
2021/06/06 01:50:59;;;;;;;4.47;3.90;;;25.10;46.80;;;;;;5090112;28;20039;-62
2021/06/06 01:53:26;;;;;;;4.32;3.80;;;25.10;46.70;;;;;;5089432;28;20089;-62
2021/06/06 01:56:03;;;;;;;4.28;3.72;;;25.10;46.80;;;;;;5091163;28;20035;-62
2021/06/06 01:58:39;;;;;;;4.88;3.83;;;25.10;46.70;;;;;;5091621;28;20390;-61
2021/06/06 02:01:12;;;;;;;4.10;3.35;;;25.10;46.70;;;;;;5090768;28;20372;-62
2021/06/06 02:03:39;;;;;;;4.80;3.95;;;25.10;46.70;;;;;;5091923;28;20032;-61
2021/06/06 02:06:14;;;;;;;3.88;3.47;;;25.10;46.80;;;;;;5091979;28;20463;-61
2021/06/06 02:08:45;;;;;;;5.28;3.38;;;25.10;46.80;;;;;;5090313;28;20474;-61
2021/06/06 02:11:30;;;;;;;3.75;3.20;;;25.10;46.70;;;;;;5089753;28;20470;-61
2021/06/06 02:14:03;;;;;;;4.85;3.38;;;25.10;46.70;;;;;;5090249;28;20490;-61
2021/06/06 02:16:36;;;;;;;4.85;3.35;;;25.10;46.80;;;;;;5090491;28;20055;-60
2021/06/06 02:19:12;;;;;;;5.40;3.60;;;25.10;46.80;;;;;;5087789;28;20032;-61
2021/06/06 02:21:43;;;;;;;3.75;3.13;;;25.10;46.80;;;;;;5090994;28;20336;-61
2021/06/06 02:24:13;;;;;;;4.75;3.47;;;25.10;46.80;;;;;;5090166;28;20050;-61
2021/06/06 02:26:57;;;;;;;4.60;3.15;;;25.10;46.80;;;;;;5089569;28;20507;-61
2021/06/06 02:29:35;;;;;;;4.40;3.58;;;25.10;46.80;;;;;;5089127;28;20398;-61
2021/06/06 02:32:35;;;;;;;3.97;3.03;;;25.10;46.80;;;;;;5093901;28;20020;-60
2021/06/06 02:35:12;;;;;;;4.43;3.38;;;25.10;46.80;;;;;;5095097;28;20080;-60
2021/06/06 02:38:13;;;;;;;4.32;3.40;;;25.10;46.80;;;;;;5077947;28;20020;-61
2021/06/06 02:41:00;;;;;;;4.47;3.60;;;25.10;46.80;;;;;;5084890;28;20052;-61
2021/06/06 02:44:01;;;;;;;4.90;3.42;;;25.10;46.80;;;;;;5094188;28;20059;-61
2021/06/06 02:46:34;;;;;;;4.45;3.58;;;25.00;46.80;;;;;;5090589;28;20047;-61
2021/06/06 02:49:18;;;;;;;4.75;3.90;;;25.00;46.80;;;;;;5089565;28;20081;-61
2021/06/06 02:52:08;;;;;;;4.57;3.60;;;25.00;46.80;;;;;;5092976;28;20036;-62
2021/06/06 02:54:51;;;;;;;4.65;3.25;;;25.00;46.90;;;;;;5078505;28;20055;-61
2021/06/06 02:57:28;;;;;;;4.20;3.60;;;25.00;47.00;;;;;;5082045;28;20115;-60
2021/06/06 03:00:05;;;;;;;4.72;3.38;;;25.00;47.00;;;;;;5073668;28;20459;-61
2021/06/06 03:02:42;;;;;;;5.90;3.85;;;25.00;47.00;;;;;;5090165;28;20028;-61
2021/06/06 03:05:15;;;;;;;4.03;3.13;;;25.00;47.00;;;;;;5075976;28;20059;-62
2021/06/06 03:07:47;;;;;;;4.50;3.35;;;25.00;47.00;;;;;;5087744;28;20020;-60
2021/06/06 03:10:16;;;;;;;4.85;3.55;;;25.00;47.10;;;;;;5075815;28;20036;-61
2021/06/06 03:12:47;;;;;;;4.57;3.70;;;25.00;47.10;;;;;;5058778;28;20040;-60
2021/06/06 03:15:15;;;;;;;4.38;3.63;;;25.00;47.10;;;;;;5075215;28;20532;-62
2021/06/06 03:17:50;;;;;;;5.18;4.00;;;25.00;47.10;;;;;;5074714;28;20024;-62
2021/06/06 03:20:26;;;;;;;4.57;3.47;;;25.00;47.10;;;;;;5090864;28;20036;-62
2021/06/06 03:22:56;;;;;;;4.00;3.15;;;25.00;47.10;;;;;;5075571;28;20486;-62
2021/06/06 03:25:39;;;;;;;4.50;3.17;;;25.00;47.70;;;;;;5089478;28;20062;-63
2021/06/06 03:28:08;;;;;;;4.72;3.35;;;25.00;47.10;;;;;;5092037;28;20411;-62
2021/06/06 03:30:42;;;;;;;4.20;3.40;;;24.90;47.10;;;;;;5092169;28;20477;-62
2021/06/06 03:33:21;;;;;;;5.18;3.53;;;25.00;47.20;;;;;;5090797;28;20108;-62
2021/06/06 03:35:48;;;;;;;4.75;3.17;;;25.00;47.20;;;;;;5092394;28;20019;-61
2021/06/06 03:38:17;;;;;;;5.45;3.63;;;24.90;47.10;;;;;;5091863;28;20055;-63
2021/06/06 03:40:46;;;;;;;5.30;3.67;;;24.90;47.20;;;;;;5091174;28;20417;-62
2021/06/06 03:43:29;;;;;;;5.22;3.80;;;24.90;47.20;;;;;;5093989;28;20044;-62
2021/06/06 03:45:57;;;;;;;5.20;4.03;;;24.90;47.80;;;;;;5092608;28;20383;-61
2021/06/06 03:48:28;;;;;;;4.15;3.30;;;24.90;47.20;;;;;;5092609;28;20047;-63
2021/06/06 03:50:54;;;;;;;5.47;3.95;;;24.90;47.20;;;;;;5092455;28;20028;-61
2021/06/06 03:53:24;;;;;;;5.88;4.10;;;24.90;47.20;;;;;;5090611;28;20020;-62
2021/06/06 03:55:52;;;;;;;5.05;3.80;;;24.90;47.20;;;;;;5093409;28;20362;-61
2021/06/06 03:58:20;;;;;;;4.85;3.65;;;24.90;47.20;;;;;;5092823;28;20122;-62
2021/06/06 04:00:49;;;;;;;5.72;4.22;;;24.90;47.20;;;;;;5092509;28;20034;-63
2021/06/06 04:03:16;;;;;;;5.03;3.72;;;24.90;47.20;;;;;;5091831;28;20024;-61
2021/06/06 04:05:45;;;;;;;4.95;3.40;;;24.90;47.20;;;;;;5092138;28;20365;-60
2021/06/06 04:08:19;;;;;;;4.90;3.20;;;24.90;47.20;;;;;;5093547;28;20478;-60
2021/06/06 04:10:52;;;;;;;4.28;3.08;;;24.90;47.20;;;;;;5091886;28;20035;-60
2021/06/06 04:13:19;;;;;;;5.32;3.63;;;24.90;47.20;;;;;;5094117;28;20359;-60
2021/06/06 04:15:46;;;;;;;3.80;3.40;;;24.90;47.20;;;;;;5091131;28;20392;-60
2021/06/06 04:18:22;;;;;;;5.07;3.83;;;24.90;47.20;;;;;;5091431;28;20355;-60
2021/06/06 04:20:50;;;;;;;4.80;3.42;;;24.90;47.20;;;;;;5091216;28;20043;-60
2021/06/06 04:23:19;;;;;;;6.25;3.97;;;24.80;47.10;;;;;;5089010;28;20775;-60
2021/06/06 04:25:47;;;;;;;5.53;3.80;;;24.80;47.10;;;;;;5073137;28;20039;-62
2021/06/06 04:28:17;;;;;;;4.72;3.53;;;24.80;47.10;;;;;;5092342;28;20126;-59
2021/06/06 04:30:45;;;;;;;5.10;3.72;;;24.90;47.20;;;;;;5092021;28;20024;-61
2021/06/06 04:33:12;;;;;;;5.57;3.70;;;24.80;47.10;;;;;;5091350;28;20043;-61
2021/06/06 04:35:41;;;;;;;4.53;3.58;;;24.80;47.10;;;;;;5091789;28;20032;-61
2021/06/06 04:38:13;;;;;;;6.43;3.95;;;24.80;47.10;;;;;;5091542;28;20036;-61
2021/06/06 04:40:41;;;;;;;5.63;3.92;;;24.80;47.10;;;;;;5091034;28;20039;-62
2021/06/06 04:43:08;;;;;;;4.20;3.47;;;24.80;47.10;;;;;;5090847;28;20024;-62
2021/06/06 04:45:34;;;;;;;4.35;3.35;;;24.80;47.10;;;;;;5075585;28;20047;-61
2021/06/06 04:48:13;;;;;;;5.07;3.92;;;24.80;47.10;;;;;;5087939;28;20028;-61
2021/06/06 04:50:40;;;;;;;6.45;3.90;;;24.80;47.10;;;;;;5091746;28;20124;-61
2021/06/06 04:53:08;;;;;;;5.20;3.70;;;24.80;47.10;;;;;;5090833;28;20032;-62
2021/06/06 04:55:35;;;;;;;5.13;3.75;;;24.80;47.10;;;;;;5090828;28;20024;-61
2021/06/06 04:58:03;;;;;;;4.25;3.30;;;24.80;47.10;;;;;;5092129;28;20405;-62
2021/06/06 05:00:34;;;;;;;5.20;3.60;;;24.80;47.10;;;;;;5092404;28;20063;-62
2021/06/06 05:03:02;;;;;;;4.97;3.60;;;24.80;47.20;;;;;;5090572;28;20312;-61
2021/06/06 05:05:30;;;;;;;4.40;3.70;;;24.80;47.20;;;;;;5092036;28;20367;-61
2021/06/06 05:07:59;;;;;;;3.90;3.22;;;24.80;47.20;;;;;;5092913;28;20039;-63
2021/06/06 05:10:26;;;;;;;4.28;3.17;;;24.80;47.20;;;;;;5088977;28;20447;-62
2021/06/06 05:12:53;;;;;;;5.05;3.50;;;24.80;47.20;;;;;;5091521;28;20028;-62
2021/06/06 05:15:21;;;;;;;4.50;3.45;;;24.80;47.20;;;;;;5088614;28;20081;-61
2021/06/06 05:17:48;;;;;;;4.45;3.00;;;24.80;47.20;;;;;;5088338;28;20024;-62
2021/06/06 05:20:16;;;;;;;3.95;2.88;;;24.80;47.30;;;;;;5088747;28;20103;-62
2021/06/06 05:22:42;;;;;;;3.75;3.20;;;24.80;47.30;;;;;;5091501;28;20027;-60
2021/06/06 05:25:12;;;;;;;4.95;3.03;;;24.80;47.30;;;;;;5092427;28;20044;-62
2021/06/06 05:27:38;;;;;;;4.93;3.08;;;24.80;47.40;;;;;;5091131;28;20036;-62
2021/06/06 05:30:08;;;;;;;3.72;2.97;;;24.80;47.40;;;;;;5091622;28;20036;-62
2021/06/06 05:32:34;;;;;;;3.60;3.00;;;24.80;47.40;;;;;;5090613;28;20028;-61
2021/06/06 05:35:00;;;;;;;3.80;2.78;;;24.80;47.40;;;;;;5090853;28;20518;-61
2021/06/06 05:37:26;;;;;;;3.45;2.92;;;24.80;47.40;;;;;;5092187;28;20116;-61
2021/06/06 05:39:53;;;;;;;4.07;3.00;;;24.80;47.40;;;;;;5090767;28;20050;-60
2021/06/06 05:42:18;;;;;;;2.80;2.50;;;24.80;47.40;;;;;;5092544;28;20560;-61
2021/06/06 05:44:44;;;;;;;3.13;2.50;;;24.80;47.40;;;;;;5091803;28;20103;-61
2021/06/06 05:47:11;;;;;;;3.53;2.90;;;24.80;47.40;;;;;;5091691;28;20040;-60
2021/06/06 05:49:38;;;;;;;5.05;2.95;;;24.80;47.40;;;;;;5091704;28;20509;-61
2021/06/06 05:52:09;;;;;;;3.42;2.80;;;24.80;47.40;;;;;;5091397;28;20332;-61
2021/06/06 05:54:34;;;;;;;3.45;2.67;;;24.80;47.50;;;;;;5090510;28;20129;-62
2021/06/06 05:57:00;;;;;;;3.97;2.88;;;24.70;47.40;;;;;;5092033;28;20443;-61
2021/06/06 05:59:26;;;;;;;3.50;2.60;;;24.70;47.40;;;;;;5091466;28;20038;-61
2021/06/06 06:01:52;;;;;;;3.95;2.83;;;24.70;47.50;;;;;;5087152;28;20439;-61
2021/06/06 06:04:18;;;;;;;2.88;2.47;;;24.70;47.50;;;;;;5091412;28;20031;-60
2021/06/06 06:06:44;;;;;;;3.63;2.70;;;24.70;47.60;;;;;;5095427;28;20079;-62
2021/06/06 06:09:10;;;;;;;2.83;2.10;;;24.70;47.60;;;;;;5095907;28;20067;-62
2021/06/06 06:11:36;;;;;;;3.28;2.60;;;24.70;47.50;;;;;;5093443;28;20081;-61
2021/06/06 06:14:02;;;;;;;3.17;2.40;;;24.70;47.60;;;;;;5096765;28;20039;-60
2021/06/06 06:16:35;;;;;;;3.70;2.50;;;24.70;47.60;;;;;;5096081;28;20024;-60
2021/06/06 06:19:03;;;;;;;3.60;2.50;;;24.80;47.70;;;;;;5095324;28;20036;-60
2021/06/06 06:21:30;;;;;;;3.08;2.60;;;24.70;47.60;;;;;;5095283;28;20032;-63
2021/06/06 06:23:56;;;;;;;3.25;2.70;;;24.70;48.20;;;;;;5096226;28;20065;-61
2021/06/06 06:26:23;;;;;;;3.67;2.72;;;24.70;47.60;;;;;;5094963;28;20054;-62
2021/06/06 06:29:09;;;;;;;2.75;2.35;;;24.70;48.20;;;;;;5093027;28;20043;-60
2021/06/06 06:31:52;;;;;;;2.97;2.45;;;24.70;47.70;;;;;;5095664;28;20032;-59
2021/06/06 06:34:26;;;;;;;5.93;2.55;;;24.70;47.70;;;;;;5094670;28;20085;-61
2021/06/06 06:36:53;;;;;;;4.20;2.72;;;24.70;47.70;;;;;;5095899;28;20016;-60
2021/06/06 06:39:20;;;;;;;3.15;2.50;;;24.70;47.70;;;;;;5093540;28;20032;-54
2021/06/06 06:41:45;;;;;;;3.17;2.50;;;24.70;47.70;;;;;;5094662;28;20028;-59
2021/06/06 06:44:16;;;;;;;3.15;2.53;;;24.70;47.80;;;;;;5095694;28;20032;-61
2021/06/06 06:46:43;;;;;;;3.20;2.35;;;24.80;47.80;;;;;;5094930;28;20036;-61
2021/06/06 06:49:12;;;;;;;3.60;2.53;;;24.70;47.80;;;;;;5094646;28;20024;-61
2021/06/06 06:51:40;;;;;;;3.10;2.28;;;24.70;47.80;;;;;;5094258;28;20304;-62
2021/06/06 06:54:07;;;;;;;2.95;2.17;;;24.70;47.80;;;;;;5092268;28;20432;-62
2021/06/06 06:56:34;;;;;;;3.15;2.40;;;24.70;47.80;;;;;;5094749;28;20063;-63
2021/06/06 06:59:00;;;;;;;2.97;2.30;;;24.80;47.80;;;;;;5096792;28;20024;-62
2021/06/06 07:01:27;;;;;;;2.80;2.13;;;24.70;47.80;;;;;;5095760;28;20020;-60
2021/06/06 07:03:54;;;;;;;2.92;2.30;;;24.70;47.80;;;;;;5094116;28;20523;-62
2021/06/06 07:06:20;;;;;;;3.15;2.55;;;24.70;47.80;;;;;;5093817;28;20181;-61
2021/06/06 07:08:47;;;;;;;2.22;1.92;;;24.70;47.70;;;;;;5094477;28;20085;-62
2021/06/06 07:11:17;;;;;;;2.58;2.15;;;24.70;47.70;;;;;;5094824;28;20028;-63
2021/06/06 07:13:43;;;;;;;2.70;2.50;;;24.70;47.70;;;;;;5092570;28;20097;-64
2021/06/06 07:16:11;;;;;;;3.50;2.33;;;24.70;47.70;;;;;;5090637;28;20426;-60
2021/06/06 07:18:37;;;;;;;2.08;1.88;;;24.70;47.70;;;;;;5093029;28;20035;-62
2021/06/06 07:21:08;;;;;;;3.08;1.90;;;24.70;47.70;;;;;;5090061;28;20110;-62
2021/06/06 07:23:34;;;;;;;3.25;2.40;;;24.80;47.70;;;;;;5084902;28;20040;-64
2021/06/06 07:26:05;;;;;;;3.40;2.28;;;24.80;47.80;;;;;;5087080;28;20051;-61
2021/06/06 07:28:31;;;;;;;3.40;1.83;;;24.80;47.80;;;;;;5085636;28;20473;-62
2021/06/06 07:31:00;;;;;;;2.00;1.80;;;24.80;47.70;;;;;;5092105;28;20028;-62
2021/06/06 07:33:33;;;;;;;2.33;2.03;;;24.80;47.70;;;;;;5092873;28;20103;-61
2021/06/06 07:36:00;;;;;;;2.17;1.73;;;24.90;47.60;;;;;;5093788;28;20032;-63
2021/06/06 07:38:26;;;;;;;1.95;1.75;;;24.90;47.50;;;;;;5092777;28;20039;-61
2021/06/06 07:40:54;;;;;;;2.05;1.70;;;24.90;47.40;;;;;;5093043;28;20112;-61
2021/06/06 07:43:21;;;;;;;2.47;1.65;;;25.00;47.30;;;;;;5086554;28;20040;-62
2021/06/06 07:45:47;;;;;;;2.47;1.50;;;25.00;47.30;;;;;;5081852;28;20050;-61
2021/06/06 07:48:13;;;;;;;2.60;1.67;;;25.00;47.20;;;;;;5094602;28;20107;-58
2021/06/06 07:50:43;;;;;;;1.90;1.38;;;25.10;47.20;;;;;;5093168;28;20492;-60
2021/06/06 07:53:10;;;;;;;2.58;1.60;;;25.10;47.10;;;;;;5088415;28;20455;-58
2021/06/06 07:55:36;;;;;;;2.30;1.58;;;25.10;47.00;;;;;;5093938;28;20081;-62
2021/06/06 07:58:04;;;;;;;2.25;1.50;;;25.10;46.90;;;;;;5094967;28;20032;-59
2021/06/06 08:00:37;;;;;;;1.75;1.65;;;25.20;46.90;;;;;;5091637;28;20093;-59
2021/06/06 08:03:04;;;;;;;2.05;1.70;;;25.20;46.80;;;;;;5092903;28;20114;-63
2021/06/06 08:05:30;;;;;;;2.25;1.70;;;25.20;46.80;;;;;;5087462;28;20131;-64
2021/06/06 08:07:56;;;;;;;1.63;1.50;;;25.20;46.80;;;;;;5073071;28;20082;-63
2021/06/06 08:10:25;;;;;;;2.35;1.65;;;25.20;46.70;;;;;;5093649;28;20028;-62
2021/06/06 08:12:51;;;;;;;1.92;1.55;;;25.30;46.70;;;;;;5093612;28;20023;-63
2021/06/06 08:15:19;;;;;;;1.90;1.65;;;25.30;46.70;;;;;;5094031;28;20028;-63
2021/06/06 08:17:45;;;;;;;2.17;1.73;;;25.30;46.60;;;;;;5091378;28;20036;-63
2021/06/06 08:20:16;;;;;;;1.67;1.58;;;25.30;46.50;;;;;;5089971;28;20092;-65
2021/06/06 08:22:42;;;;;;;2.22;1.67;;;25.30;46.50;;;;;;5091768;28;20028;-63
2021/06/06 08:25:11;;;;;;;1.67;1.52;;;25.40;46.50;;;;;;5090349;28;20077;-64
2021/06/06 08:27:38;;;;;;;2.03;1.70;;;25.40;46.50;;;;;;5092100;28;20355;-58
2021/06/06 08:30:10;;;;;;;2.33;2.00;;;25.40;46.40;;;;;;5092799;28;20044;-58
2021/06/06 08:32:36;;;;;;;2.53;1.85;;;25.40;46.20;;;;;;5092632;28;20042;-55
2021/06/06 08:35:04;;;;;;;2.00;1.48;;;25.40;46.10;;;;;;5091507;28;20347;-62
2021/06/06 08:37:29;;;;;;;3.50;1.80;;;25.40;46.00;;;;;;5091069;28;20447;-57
2021/06/06 08:39:55;;;;;;;2.45;1.50;;;25.40;46.00;;;;;;5089676;28;20027;-66
2021/06/06 08:42:25;;;;;;;3.38;1.80;;;25.40;46.00;;;;;;5092578;28;20420;-66
2021/06/06 08:45:08;;;;;;;2.40;1.45;;;25.40;46.10;;;;;;5092084;28;20031;-64
2021/06/06 08:47:36;;;;;;;2.05;1.30;;;25.40;46.00;;;;;;5091890;28;20107;-62
2021/06/06 08:50:10;;;;;;;3.17;1.60;;;25.40;46.10;;;;;;5093100;28;20019;-63
2021/06/06 08:53:14;;;;;;;1.25;1.15;;;25.40;46.00;;;;;;5088016;28;20027;-60
2021/06/06 08:56:04;;;;;;;4.82;3.45;;;25.50;46.00;;;;;;5091882;28;20020;-58
2021/06/06 08:59:05;;;;;;;10.68;5.05;;;25.40;46.40;;;;;;5093072;28;20063;-60
2021/06/06 09:01:34;;;;;;;9.13;5.05;;;25.50;47.00;;;;;;5081718;28;20055;-63
2021/06/06 09:04:04;;;;;;;11.10;6.22;;;25.50;47.60;;;;;;5091331;28;20039;-65
2021/06/06 09:06:35;;;;;;;10.30;5.80;;;25.60;48.00;;;;;;5081212;28;20189;-64
2021/06/06 09:09:01;;;;;;;8.27;4.70;;;25.60;48.20;;;;;;5093574;28;20032;-67
2021/06/06 09:11:31;;;;;;;7.53;4.18;;;25.60;48.10;;;;;;5091463;28;20028;-66
2021/06/06 09:13:56;;;;;;;5.70;3.65;;;25.70;48.10;;;;;;5093092;28;20036;-61
2021/06/06 09:16:27;;;;;;;6.85;3.83;;;25.70;47.90;;;;;;5090923;28;20176;-60
2021/06/06 09:19:19;;;;;;;5.60;3.40;;;25.70;47.90;;;;;;5092366;28;20038;-63
2021/06/06 09:21:55;;;;;;;6.57;4.18;;;25.70;47.90;;;;;;5089812;28;20032;-64
2021/06/06 09:24:35;;;;;;;14.65;6.05;;;25.80;48.30;;;;;;5092222;28;20032;-64
2021/06/06 09:27:16;;;;;;;12.43;6.55;;;25.80;48.90;;;;;;5089921;28;20066;-62
2021/06/06 09:29:43;;;;;;;12.68;7.20;;;25.80;49.30;;;;;;5090051;28;20120;-63
2021/06/06 09:32:21;;;;;;;12.98;7.07;;;25.90;49.70;;;;;;5090623;28;20032;-64
2021/06/06 09:35:29;;;;;;;12.43;6.47;;;25.90;49.90;;;;;;5092575;28;20063;-63
2021/06/06 09:38:11;;;;;;;9.88;5.18;;;25.90;50.10;;;;;;5079614;28;20449;-58
2021/06/06 09:40:44;;;;;;;5.88;3.45;;;26.00;49.70;;;;;;5091298;28;20036;-58
2021/06/06 09:43:22;;;;;;;6.25;3.17;;;26.00;49.00;;;;;;5095922;28;20418;-60
2021/06/06 09:45:47;;;;;;;5.68;2.58;;;25.90;48.20;;;;;;5094478;28;20051;-52
2021/06/06 09:48:27;;;;;;;6.75;2.50;;;25.90;48.00;;;;;;5096458;28;20024;-62
2021/06/06 09:50:54;;;;;;;4.63;2.72;;;25.90;47.70;;;;;;5096285;28;20028;-65
2021/06/06 09:53:31;;;;;;;4.65;2.88;;;25.90;47.60;;;;;;5094058;28;20031;-63
2021/06/06 09:56:27;;;;;;;5.35;2.85;;;25.90;47.70;;;;;;5094116;28;20028;-63
2021/06/06 09:58:55;;;;;;;5.10;3.42;;;25.90;47.90;;;;;;5095616;28;20047;-68
2021/06/06 10:01:29;;;;;;;5.80;3.90;;;25.90;48.30;;;;;;5094485;28;20359;-69
2021/06/06 10:04:01;;;;;;;;;;;26.00;48.70;;;;;;5095789;28;20048;-67
2021/06/06 10:06:30;;;;;;;5.88;3.35;;;26.00;48.80;;;;;;5095187;28;20015;-65
2021/06/06 10:09:12;;;;;;;5.03;3.13;;;26.00;48.80;;;;;;5092036;28;20024;-68
2021/06/06 10:12:16;;;;;;;4.15;2.85;;;26.00;49.30;;;;;;5089666;28;20085;-68
2021/06/06 10:14:50;;;;;;;6.68;2.50;;;26.10;48.50;;;;;;5090409;28;20028;-68
2021/06/06 10:17:27;;;;;;;3.95;2.28;;;26.10;48.90;;;;;;5096123;28;20391;-67
2021/06/06 10:20:01;;;;;;;2.92;2.10;;;26.10;48.00;;;;;;5095008;28;20075;-66
2021/06/06 10:22:37;;;;;;;4.30;1.80;;;26.10;47.80;;;;;;5094194;28;20028;-65
2021/06/06 10:25:10;;;;;;;5.15;2.03;;;26.10;47.50;;;;;;5089810;28;20062;-66
2021/06/06 10:27:44;;;;;;;3.22;1.90;;;26.10;47.40;;;;;;5094568;28;20099;-66
2021/06/06 10:30:33;;;;;;;3.10;1.60;;;26.10;47.20;;;;;;5091083;28;20051;-66
2021/06/06 10:33:19;;;;;;;2.03;1.42;;;26.10;47.10;;;;;;5078270;28;20040;-65
2021/06/06 10:35:45;;;;;;;2.33;1.58;;;26.10;46.80;;;;;;5093204;28;20043;-65
2021/06/06 10:38:12;;;;;;;2.28;1.25;;;26.10;46.80;;;;;;5088442;28;20052;-63
2021/06/06 10:40:49;;;;;;;2.00;1.48;;;26.20;46.70;;;;;;5093459;28;20347;-65
2021/06/06 10:43:36;;;;;;;1.80;1.10;;;26.20;46.50;;;;;;5087629;28;20024;-65
2021/06/06 10:46:29;;;;;;;1.27;1.17;;;26.20;46.40;;;;;;5092900;28;20426;-65
2021/06/06 10:49:14;;;;;;;3.75;1.75;;;26.20;46.30;;;;;;5089659;28;20110;-66
2021/06/06 10:51:47;;;;;;;2.03;1.33;;;26.20;46.20;;;;;;5091014;28;20039;-65
2021/06/06 10:54:31;;;;;;;1.17;1.00;;;26.10;46.00;;;;;;5094700;28;20404;-65
2021/06/06 10:57:05;;;;;;;1.30;1.20;;;26.10;45.90;;;;;;5086814;28;20504;-65
2021/06/06 10:59:34;;;;;;;;;;;26.20;45.90;;;;;;5091448;28;20056;-66
2021/06/06 11:02:02;;;;;;;1.50;1.00;;;26.20;46.00;;;;;;5085269;28;19999;-65
2021/06/06 11:04:46;;;;;;;1.70;1.17;;;26.20;45.90;;;;;;5092280;28;20061;-66
2021/06/06 11:07:35;;;;;;;2.20;1.23;;;26.20;45.70;;;;;;5090418;28;20044;-66
2021/06/06 11:10:16;;;;;;;1.95;0.93;;;26.20;45.60;;;;;;5091536;28;20447;-65
2021/06/06 11:12:45;;;;;;;1.65;1.20;;;26.20;45.60;;;;;;5087390;28;20032;-65
2021/06/06 11:15:35;;;;;;;1.50;1.02;;;26.20;45.60;;;;;;5090493;28;20448;-67
2021/06/06 11:18:16;;;;;;;2.10;1.67;;;26.20;45.40;;;;;;5084629;28;20436;-66
2021/06/06 11:20:50;;;;;;;1.20;1.02;;;26.30;45.40;;;;;;5089721;28;20050;-66
2021/06/06 11:23:37;;;;;;;1.33;1.20;;;26.30;45.40;;;;;;5085730;28;20066;-67
2021/06/06 11:26:32;;;;;;;1.38;1.10;;;26.30;45.30;;;;;;5092469;28;20494;-67
2021/06/06 11:29:20;;;;;;;1.45;1.30;;;26.30;45.30;;;;;;5082467;28;20044;-65
2021/06/06 11:32:17;;;;;;;1.08;0.90;;;26.30;45.30;;;;;;5085464;28;20043;-65
2021/06/06 11:35:07;;;;;;;1.05;0.98;;;26.30;45.30;;;;;;5083378;28;20067;-65
2021/06/06 11:37:37;;;;;;;1.60;1.05;;;26.30;45.30;;;;;;5087123;28;20109;-64
2021/06/06 11:40:18;;;;;;;1.60;1.13;;;26.30;45.30;;;;;;5089131;28;20115;-64
2021/06/06 11:42:44;;;;;;;1.13;1.02;;;26.30;45.30;;;;;;5088722;28;20020;-65
2021/06/06 11:45:18;;;;;;;1.40;1.23;;;26.30;45.30;;;;;;5088219;28;20346;-63
2021/06/06 11:47:50;;;;;;;2.10;1.45;;;26.30;45.40;;;;;;5089635;28;20067;-64
2021/06/06 11:50:24;;;;;;;2.17;1.50;;;26.30;45.40;;;;;;5086521;28;20379;-65
2021/06/06 11:53:05;;;;;;;2.50;1.63;;;26.30;45.30;;;;;;5087021;28;20020;-65
2021/06/06 11:55:45;;;;;;;2.75;2.08;;;26.30;45.30;;;;;;5091346;28;20115;-65
2021/06/06 11:58:21;;;;;;;2.85;2.10;;;26.40;45.40;;;;;;5092840;28;20119;-64
2021/06/06 12:01:04;;;;;;;2.38;2.15;;;26.30;45.30;;;;;;5089206;28;20034;-64
2021/06/06 12:03:36;;;;;;;3.38;2.70;;;26.30;45.30;;;;;;5089762;28;20039;-63
2021/06/06 12:06:31;;;;;;;2.22;2.00;;;26.30;45.30;;;;;;5089732;28;21789;-61
2021/06/06 12:09:00;;;;;;;1.85;1.75;;;26.40;45.30;;;;;;5083861;28;20502;-63
2021/06/06 12:11:33;;;;;;;2.45;2.10;;;26.40;45.30;;;;;;5090862;28;20063;-61
2021/06/06 12:14:17;;;;;;;3.90;2.70;;;26.40;45.30;;;;;;5087285;28;20093;-64
2021/06/06 12:16:54;;;;;;;5.28;3.47;;;26.40;45.30;;;;;;5087827;28;20028;-64
2021/06/06 12:19:27;;;;;;;3.95;3.15;;;26.40;45.30;;;;;;5092137;28;20119;-62
2021/06/06 12:22:09;;;;;;;4.90;3.63;;;26.50;45.30;;;;;;5089856;28;20049;-64
2021/06/06 12:24:35;;;;;;;3.65;3.05;;;26.50;45.30;;;;;;5082741;28;20028;-65
2021/06/06 12:27:16;;;;;;;3.75;3.22;;;26.50;45.20;;;;;;5087077;28;20043;-64
2021/06/06 12:29:59;;;;;;;3.33;2.67;;;26.50;45.10;;;;;;5090702;28;20102;-62
2021/06/06 12:32:30;;;;;;;3.55;2.70;;;26.50;44.90;;;;;;5083360;28;20027;-63
2021/06/06 12:35:00;;;;;;;3.13;2.65;;;26.50;44.80;;;;;;5084621;28;20027;-63
2021/06/06 12:37:30;;;;;;;2.80;2.58;;;26.60;44.80;;;;;;5086565;28;20459;-62
2021/06/06 12:39:59;;;;;;;2.53;2.33;;;26.60;44.60;;;;;;5084186;28;20385;-64
2021/06/06 12:42:25;;;;;;;2.85;2.63;;;26.50;44.50;;;;;;5086915;28;20070;-65
2021/06/06 12:44:55;;;;;;;3.25;2.25;;;26.60;44.50;;;;;;5088464;28;20125;-65
2021/06/06 12:47:31;;;;;;;3.30;2.70;;;26.60;44.30;;;;;;5083100;28;20047;-66
2021/06/06 12:50:00;;;;;;;3.63;2.45;;;26.60;44.20;;;;;;5088029;28;20040;-64
2021/06/06 12:52:42;;;;;;;2.70;2.40;;;26.60;44.10;;;;;;5086990;28;20114;-65
2021/06/06 12:55:33;;;;;;;2.60;2.25;;;26.60;44.00;;;;;;5088406;28;20055;-65
2021/06/06 12:58:11;;;;;;;4.18;2.85;;;26.60;43.90;;;;;;5087211;28;20072;-65
2021/06/06 13:00:43;;;;;;;4.07;2.67;;;26.60;44.50;;;;;;5088229;28;20389;-68
2021/06/06 13:03:31;;;;;;;3.92;3.20;;;26.50;43.80;;;;;;5086657;28;20084;-66
2021/06/06 13:06:35;;;;;;;3.80;2.90;;;26.60;43.80;;;;;;5085229;28;21052;-66
2021/06/06 13:09:15;;;;;;;2.70;2.50;;;26.60;43.70;;;;;;5085694;28;20043;-63
2021/06/06 13:11:42;;;;;;;2.75;2.50;;;26.60;43.60;;;;;;5087153;28;20036;-63
2021/06/06 13:14:33;;;;;;;2.97;2.67;;;26.60;43.60;;;;;;5087632;28;20064;-64
2021/06/06 13:17:12;;;;;;;2.63;2.42;;;26.60;43.40;;;;;;5089005;28;20031;-63
2021/06/06 13:19:40;;;;;;;2.53;2.25;;;26.70;43.40;;;;;;5084362;28;20112;-63